Terminal Aerodrome Forecast
Issued by NWS

Home | Current Version | Previous Version | Graphics & Text | Print | Product List | Glossary Off
Versions: 1 2 3 4 5 6 7 8 9 10 11 12 13 14

000
FTUS43 KGRB 011900 AAA
TAFMTW
TAF AMD
KMTW 011938Z 0120/0218 24011G17KT P6SM SCT030 BKN150
      TEMPO 0120/0124 -SN BKN030
     FM020100 25010G16KT P6SM SCT025
     FM020500 28007KT P6SM SKC=

USA.gov is the U.S. government's official web portal to all federal, state and local government web resources and services.